createdAt,value
2022-10-22T00:02:22.648Z,94.64
2022-10-22T00:05:10.376Z,94.92
2022-10-22T00:07:56.502Z,95.21
2022-10-22T00:10:43.113Z,95.04
2022-10-22T00:13:29.254Z,95.34
2022-10-22T00:16:15.472Z,95.20
2022-10-22T00:19:02.754Z,95.01
2022-10-22T00:21:49.075Z,94.72
2022-10-22T00:24:37.081Z,94.98
2022-10-22T00:27:23.964Z,95.14
2022-10-22T00:30:11.724Z,95.33
2022-10-22T00:32:58.039Z,95.48
2022-10-22T00:35:44.703Z,95.71
2022-10-22T00:38:31.293Z,95.78
2022-10-22T00:41:18.073Z,95.99
2022-10-22T00:44:06.516Z,95.77
2022-10-22T00:46:53.136Z,95.44
2022-10-22T00:49:39.945Z,95.37
2022-10-22T00:52:29.147Z,95.42
2022-10-22T00:55:16.388Z,95.27
2022-10-22T00:58:03.028Z,95.31
2022-10-22T01:00:49.783Z,94.84
2022-10-22T01:03:36.100Z,94.95
2022-10-22T01:06:33.667Z,95.00
2022-10-22T01:09:45.286Z,94.81
2022-10-22T01:12:56.483Z,94.37
2022-10-22T01:16:06.872Z,94.66
2022-10-22T01:19:40.361Z,94.27
2022-10-22T01:22:38.503Z,94.11
2022-10-22T01:25:46.080Z,93.94
2022-10-22T01:28:58.125Z,94.09
2022-10-22T01:31:57.258Z,94.30
2022-10-22T01:34:51.619Z,93.86
2022-10-22T01:37:49.218Z,93.38
2022-10-22T01:40:36.151Z,93.35
2022-10-22T01:43:25.232Z,93.21
2022-10-22T01:46:12.551Z,93.17
2022-10-22T01:49:01.888Z,93.13
2022-10-22T01:52:15.535Z,93.17
2022-10-22T01:55:10.530Z,92.86
2022-10-22T01:58:19.381Z,92.96
2022-10-22T02:01:27.670Z,93.00
2022-10-22T02:04:18.767Z,92.60
2022-10-22T02:07:10.155Z,92.66
2022-10-22T02:09:59.042Z,92.63
2022-10-22T02:12:51.371Z,92.39
2022-10-22T02:15:39.003Z,92.38
2022-10-22T02:18:29.686Z,92.42
2022-10-22T02:21:16.414Z,92.74
2022-10-22T02:24:03.440Z,92.54
2022-10-22T02:27:17.433Z,92.87
2022-10-22T02:30:10.908Z,93.11
2022-10-22T02:33:11.068Z,93.31
2022-10-22T02:35:59.723Z,93.34
2022-10-22T02:38:47.362Z,93.30
2022-10-22T02:41:34.615Z,93.64
2022-10-22T02:44:22.247Z,94.19
2022-10-22T02:47:08.376Z,94.64
2022-10-22T02:49:55.015Z,94.20
2022-10-22T02:52:42.113Z,94.38
2022-10-22T02:55:28.971Z,94.77
2022-10-22T02:58:15.278Z,94.95
2022-10-22T03:01:01.730Z,94.84
2022-10-22T03:03:48.391Z,95.02
2022-10-22T03:06:34.650Z,95.12
2022-10-22T03:09:24.018Z,95.32
2022-10-22T03:12:11.030Z,95.17
2022-10-22T03:14:57.623Z,96.06
2022-10-22T03:17:43.918Z,96.19
2022-10-22T03:20:30.617Z,96.28
2022-10-22T03:23:19.452Z,96.44
2022-10-22T03:26:06.782Z,96.82
2022-10-22T03:28:54.276Z,96.74
2022-10-22T03:31:40.840Z,97.22
2022-10-22T03:34:27.194Z,97.02
2022-10-22T03:37:13.668Z,97.30
2022-10-22T03:40:00.583Z,97.49
2022-10-22T03:42:47.225Z,97.06
2022-10-22T03:45:33.589Z,97.10
2022-10-22T03:48:19.933Z,97.06
2022-10-22T03:51:05.947Z,97.30
2022-10-22T03:53:52.843Z,97.58
2022-10-22T03:56:39.056Z,97.54
2022-10-22T03:59:25.624Z,97.92
2022-10-22T04:02:13.635Z,97.72
2022-10-22T04:05:00.257Z,98.00
2022-10-22T04:07:46.742Z,98.13
2022-10-22T04:10:33.382Z,98.04
2022-10-22T04:13:19.550Z,97.79
2022-10-22T04:16:11.147Z,97.99
2022-10-22T04:18:57.995Z,97.88
2022-10-22T04:21:44.620Z,97.59
2022-10-22T04:24:31.502Z,97.61
2022-10-22T04:27:17.568Z,97.20
2022-10-22T04:30:06.143Z,97.20
2022-10-22T04:32:52.735Z,96.90
2022-10-22T04:35:39.564Z,97.36
2022-10-22T04:38:25.909Z,97.01
2022-10-22T04:41:19.878Z,96.73
2022-10-22T04:44:11.024Z,96.59
2022-10-22T04:47:02.362Z,96.39
2022-10-22T04:49:48.913Z,96.37
2022-10-22T04:52:35.289Z,96.22
2022-10-22T04:55:21.944Z,96.42
2022-10-22T04:58:08.615Z,96.41
2022-10-22T05:00:55.198Z,96.27
2022-10-22T05:03:42.857Z,96.31
2022-10-22T05:06:32.521Z,96.38
2022-10-22T05:09:20.775Z,96.13
2022-10-22T05:12:07.410Z,96.10
2022-10-22T05:14:56.084Z,96.02
2022-10-22T05:17:43.034Z,96.44
2022-10-22T05:20:29.805Z,96.00
2022-10-22T05:23:16.294Z,96.06
2022-10-22T05:26:07.700Z,96.15
2022-10-22T05:28:54.569Z,95.81
2022-10-22T05:31:41.149Z,95.83
2022-10-22T05:34:27.683Z,95.73
2022-10-22T05:37:14.406Z,95.93
2022-10-22T05:40:12.489Z,95.86
2022-10-22T05:43:07.468Z,95.73
2022-10-22T05:45:54.232Z,95.35
2022-10-22T05:48:41.068Z,94.94
2022-10-22T05:51:30.491Z,95.32
2022-10-22T05:54:20.310Z,95.28
2022-10-22T05:57:08.758Z,95.18
2022-10-22T05:59:55.241Z,95.37
2022-10-22T06:02:42.060Z,95.32
2022-10-22T06:05:28.507Z,95.79
2022-10-22T06:08:18.315Z,95.55
2022-10-22T06:11:05.707Z,95.29
2022-10-22T06:13:52.122Z,94.93
2022-10-22T06:16:39.148Z,94.74
2022-10-22T06:19:26.559Z,94.82
2022-10-22T06:22:12.705Z,94.75
2022-10-22T06:24:58.934Z,94.89
2022-10-22T06:27:50.682Z,94.87
2022-10-22T06:30:41.714Z,94.70
2022-10-22T06:33:33.764Z,94.24
2022-10-22T06:36:23.315Z,94.28
2022-10-22T06:39:15.730Z,93.89
2022-10-22T06:42:02.047Z,93.90
2022-10-22T06:44:53.621Z,93.83
2022-10-22T06:47:43.478Z,93.36
2022-10-22T06:50:30.249Z,93.69
2022-10-22T06:53:16.711Z,93.38
2022-10-22T06:56:11.561Z,93.04
2022-10-22T06:58:58.384Z,93.16
2022-10-22T07:01:44.634Z,92.95
2022-10-22T07:04:30.886Z,93.17
2022-10-22T07:07:17.339Z,93.22
2022-10-22T07:10:04.535Z,93.10
2022-10-22T07:12:51.337Z,92.74
2022-10-22T07:15:37.555Z,92.49
2022-10-22T07:18:24.434Z,92.54
2022-10-22T07:21:36.390Z,92.80
2022-10-22T07:24:23.357Z,93.05
2022-10-22T07:27:11.719Z,93.07
2022-10-22T07:30:00.490Z,93.01
2022-10-22T07:32:46.566Z,92.62
2022-10-22T07:35:33.934Z,91.98
2022-10-22T07:38:20.255Z,92.27
2022-10-22T07:41:06.731Z,92.46
2022-10-22T07:43:53.965Z,92.56
2022-10-22T07:46:40.570Z,92.85
2022-10-22T07:49:26.974Z,93.24
2022-10-22T07:52:14.917Z,92.91
2022-10-22T07:55:01.182Z,92.79
2022-10-22T07:57:47.893Z,93.00
2022-10-22T08:00:34.556Z,93.08
2022-10-22T08:03:20.624Z,93.50
2022-10-22T08:06:12.550Z,93.31
2022-10-22T08:08:58.714Z,93.10
2022-10-22T08:11:45.781Z,92.95
2022-10-22T08:14:31.843Z,93.16
2022-10-22T08:17:18.125Z,93.11
2022-10-22T08:20:04.986Z,93.29
2022-10-22T08:22:51.602Z,93.20
2022-10-22T08:25:37.691Z,92.97
2022-10-22T08:28:24.140Z,92.94
2022-10-22T08:31:10.860Z,92.86
2022-10-22T08:33:57.388Z,92.77
2022-10-22T08:36:43.959Z,92.92
2022-10-22T08:39:30.380Z,92.88
2022-10-22T08:42:43.500Z,92.75
2022-10-22T08:45:46.852Z,92.62
2022-10-22T08:48:52.639Z,92.57
2022-10-22T08:51:40.003Z,92.63
2022-10-22T08:54:33.387Z,92.12
2022-10-22T08:57:51.483Z,92.03
2022-10-22T09:00:58.856Z,91.70
2022-10-22T09:03:54.104Z,91.18
2022-10-22T09:06:43.781Z,91.02
2022-10-22T09:09:41.883Z,90.74
2022-10-22T09:12:28.311Z,91.14
2022-10-22T09:15:16.719Z,91.49
2022-10-22T09:18:23.682Z,91.26
2022-10-22T09:21:38.098Z,90.81
2022-10-22T09:24:41.438Z,90.16
2022-10-22T09:27:31.139Z,89.19
2022-10-22T09:30:22.042Z,89.11
2022-10-22T09:33:25.367Z,88.77
2022-10-22T09:36:22.096Z,88.65
2022-10-22T09:39:46.703Z,87.69
2022-10-22T09:42:34.355Z,87.82
2022-10-22T09:45:24.789Z,88.65
2022-10-22T09:48:30.047Z,88.95
2022-10-22T09:51:48.041Z,88.68
2022-10-22T09:54:42.546Z,89.28
2022-10-22T09:57:29.466Z,89.23
2022-10-22T10:00:19.472Z,89.33
2022-10-22T10:03:06.336Z,89.84
2022-10-22T10:06:01.372Z,90.23
2022-10-22T10:08:51.411Z,90.76
2022-10-22T10:12:00.529Z,90.81
2022-10-22T10:14:58.195Z,90.56
2022-10-22T10:18:14.029Z,90.16
2022-10-22T10:21:37.117Z,90.33
2022-10-22T10:25:00.370Z,89.65
2022-10-22T10:28:11.257Z,89.14
2022-10-22T10:31:18.173Z,88.79
2022-10-22T10:34:45.059Z,88.54
2022-10-22T10:37:46.419Z,88.77
2022-10-22T10:41:07.747Z,87.82
2022-10-22T10:44:26.713Z,87.62
2022-10-22T10:47:37.976Z,87.47
2022-10-22T10:50:41.084Z,87.29
2022-10-22T10:53:58.342Z,86.84
2022-10-22T10:56:53.843Z,86.87
2022-10-22T10:59:58.537Z,86.56
2022-10-22T11:03:14.001Z,85.55
2022-10-22T11:06:07.596Z,84.73
2022-10-22T11:09:18.504Z,84.94
2022-10-22T11:12:23.062Z,84.48
2022-10-22T11:15:32.845Z,84.70
2022-10-22T11:18:35.218Z,84.72
2022-10-22T11:21:34.463Z,84.71
2022-10-22T11:24:50.133Z,85.30
2022-10-22T11:27:52.933Z,85.18
2022-10-22T11:30:42.638Z,84.78
2022-10-22T11:33:46.476Z,85.04
2022-10-22T11:36:34.053Z,85.60
2022-10-22T11:39:48.407Z,85.56
2022-10-22T11:42:45.201Z,86.13
2022-10-22T11:45:42.932Z,86.67
2022-10-22T11:48:37.545Z,87.28
2022-10-22T11:51:39.785Z,88.02
2022-10-22T11:54:42.283Z,88.37
2022-10-22T11:57:38.553Z,88.46
2022-10-22T12:00:48.243Z,88.78
2022-10-22T12:03:34.802Z,89.16
2022-10-22T12:06:26.971Z,89.43
2022-10-22T12:09:13.473Z,89.68
2022-10-22T12:12:13.810Z,90.16
2022-10-22T12:15:00.519Z,90.62
2022-10-22T12:17:46.840Z,90.75
2022-10-22T12:20:33.249Z,91.32
2022-10-22T12:23:26.418Z,91.86
2022-10-22T12:26:34.135Z,92.07
2022-10-22T12:29:23.154Z,92.56
2022-10-22T12:32:14.242Z,92.90
2022-10-22T12:35:07.265Z,93.25
2022-10-22T12:38:01.153Z,93.38
2022-10-22T12:40:53.558Z,93.75
2022-10-22T12:43:40.054Z,93.91
2022-10-22T12:46:29.887Z,93.99
2022-10-22T12:49:27.793Z,94.51
2022-10-22T12:52:22.320Z,94.68
2022-10-22T12:55:10.032Z,95.03
2022-10-22T12:57:56.737Z,95.27
2022-10-22T13:00:46.619Z,95.41
2022-10-22T13:03:40.018Z,95.51
2022-10-22T13:06:28.032Z,95.52
2022-10-22T13:09:27.061Z,95.84
2022-10-22T13:12:16.202Z,95.78
2022-10-22T13:15:34.582Z,95.80
2022-10-22T13:18:24.648Z,96.04
2022-10-22T13:21:37.687Z,96.26
2022-10-22T13:24:24.483Z,96.69
2022-10-22T13:27:13.279Z,97.02
2022-10-22T13:30:08.959Z,97.12
2022-10-22T13:33:22.278Z,97.41
2022-10-22T13:36:13.820Z,97.88
2022-10-22T13:38:59.860Z,98.02
2022-10-22T13:41:46.366Z,98.15
2022-10-22T13:44:32.791Z,98.43
2022-10-22T13:47:29.810Z,98.42
2022-10-22T13:50:19.726Z,98.53
2022-10-22T13:53:18.771Z,98.81
2022-10-22T13:56:05.431Z,98.77
2022-10-22T13:58:51.753Z,98.67
2022-10-22T14:01:38.852Z,98.77
2022-10-22T14:04:25.863Z,98.95
2022-10-22T14:07:16.159Z,99.08
2022-10-22T14:10:14.468Z,99.34
2022-10-22T14:13:00.818Z,99.60
2022-10-22T14:15:50.162Z,99.82
2022-10-22T14:18:36.760Z,99.96
2022-10-22T14:21:23.226Z,100.00
2022-10-22T14:24:13.073Z,100.00
2022-10-22T14:26:59.716Z,100.00
2022-10-22T14:29:46.262Z,100.00
2022-10-22T14:32:32.967Z,100.00
2022-10-22T14:35:21.874Z,100.00
2022-10-22T14:38:09.335Z,100.00
2022-10-22T14:40:56.850Z,100.00
2022-10-22T14:43:43.451Z,100.00
2022-10-22T14:46:29.940Z,100.00
2022-10-22T14:49:16.266Z,100.00
2022-10-22T14:52:02.564Z,100.00
2022-10-22T14:54:49.305Z,100.00
2022-10-22T14:57:35.719Z,100.00
2022-10-22T15:00:22.124Z,100.00
2022-10-22T15:03:09.156Z,100.00
2022-10-22T15:05:55.949Z,100.00
2022-10-22T15:08:43.879Z,100.00
2022-10-22T15:11:32.693Z,100.00
2022-10-22T15:14:19.416Z,100.00
2022-10-22T15:17:08.795Z,100.00
2022-10-22T15:19:55.894Z,100.00
2022-10-22T15:22:43.040Z,100.00
2022-10-22T15:25:29.971Z,100.00
2022-10-22T15:28:16.194Z,100.00
2022-10-22T15:31:03.319Z,100.00
2022-10-22T15:33:49.347Z,100.00
2022-10-22T15:36:36.020Z,100.00
2022-10-22T15:39:23.713Z,100.00
2022-10-22T15:42:10.634Z,100.00
2022-10-22T15:44:58.723Z,100.00
2022-10-22T15:47:47.707Z,100.00
2022-10-22T15:50:38.834Z,100.00
2022-10-22T15:53:25.227Z,100.00
2022-10-22T15:56:11.940Z,100.00
2022-10-22T15:59:04.942Z,100.00
2022-10-22T16:01:51.620Z,100.00
2022-10-22T16:04:38.996Z,100.00
2022-10-22T16:07:26.435Z,100.00
2022-10-22T16:10:13.467Z,100.00
2022-10-22T16:12:59.694Z,100.00
2022-10-22T16:15:46.558Z,100.00
2022-10-22T16:18:32.532Z,100.00
2022-10-22T16:21:21.516Z,100.00
2022-10-22T16:24:09.107Z,100.00
2022-10-22T16:26:55.149Z,100.00
2022-10-22T16:29:41.464Z,100.00
2022-10-22T16:32:27.759Z,100.00
2022-10-22T16:35:14.013Z,100.00
2022-10-22T16:38:00.448Z,100.00
2022-10-22T16:40:46.996Z,100.00
2022-10-22T16:43:33.543Z,100.00
2022-10-22T16:46:22.028Z,100.00
2022-10-22T16:49:08.410Z,100.00
2022-10-22T16:51:54.667Z,100.00
2022-10-22T16:54:40.863Z,100.00
2022-10-22T16:57:28.449Z,100.00
2022-10-22T17:00:15.210Z,100.00
2022-10-22T17:03:01.308Z,100.00
2022-10-22T17:05:48.317Z,100.00
2022-10-22T17:08:36.925Z,100.00
2022-10-22T17:11:24.690Z,100.00
2022-10-22T17:14:11.227Z,100.00
2022-10-22T17:16:58.030Z,100.00
2022-10-22T17:19:44.698Z,100.00
2022-10-22T17:22:31.814Z,100.00
2022-10-22T17:25:44.080Z,100.00
2022-10-22T17:28:30.533Z,100.00
2022-10-22T17:31:27.728Z,100.00
2022-10-22T17:34:17.233Z,100.00
2022-10-22T17:37:03.915Z,100.00
2022-10-22T17:39:50.326Z,100.00
2022-10-22T17:42:40.124Z,100.00
2022-10-22T17:45:26.913Z,100.00
2022-10-22T17:48:13.317Z,100.00
2022-10-22T17:50:59.772Z,100.00
2022-10-22T17:53:46.674Z,100.00
2022-10-22T17:56:33.139Z,100.00
2022-10-22T17:59:19.827Z,100.00
2022-10-22T18:02:09.160Z,100.00
2022-10-22T18:04:55.300Z,100.00
2022-10-22T18:07:41.530Z,100.00
2022-10-22T18:10:28.711Z,100.00
2022-10-22T18:13:14.996Z,100.00
2022-10-22T18:16:02.220Z,100.00
2022-10-22T18:18:52.643Z,100.00
2022-10-22T18:21:38.910Z,100.00
2022-10-22T18:24:25.159Z,100.00
2022-10-22T18:27:11.392Z,100.00
2022-10-22T18:29:57.980Z,100.00
2022-10-22T18:32:44.589Z,100.00
2022-10-22T18:35:32.350Z,100.00
2022-10-22T18:38:21.335Z,100.00
2022-10-22T18:41:13.006Z,100.00
2022-10-22T18:44:06.556Z,100.00
2022-10-22T18:46:53.047Z,100.00
2022-10-22T18:49:39.567Z,100.00
2022-10-22T18:52:25.777Z,100.00
2022-10-22T18:55:12.184Z,100.00
2022-10-22T18:57:58.519Z,100.00
2022-10-22T19:00:45.340Z,100.00
2022-10-22T19:03:32.476Z,100.00
2022-10-22T19:06:34.338Z,100.00
2022-10-22T19:09:25.796Z,100.00
2022-10-22T19:12:14.549Z,100.00
2022-10-22T19:15:01.216Z,100.00
2022-10-22T19:17:47.780Z,100.00
2022-10-22T19:20:35.664Z,100.00
2022-10-22T19:23:22.260Z,100.00
2022-10-22T19:26:13.202Z,100.00
2022-10-22T19:29:00.157Z,100.00
2022-10-22T19:31:47.126Z,100.00
2022-10-22T19:34:33.488Z,100.00
2022-10-22T19:37:21.995Z,100.00
2022-10-22T19:40:09.789Z,100.00
2022-10-22T19:42:56.133Z,100.00
2022-10-22T19:45:42.785Z,100.00
2022-10-22T19:48:29.460Z,100.00
2022-10-22T19:51:22.662Z,100.00
2022-10-22T19:54:17.845Z,100.00
2022-10-22T19:57:04.170Z,100.00
2022-10-22T19:59:50.628Z,100.00
2022-10-22T20:02:37.808Z,100.00
2022-10-22T20:05:23.964Z,100.00
2022-10-22T20:08:10.891Z,100.00
2022-10-22T20:10:57.806Z,100.00
2022-10-22T20:13:46.766Z,100.00
2022-10-22T20:16:36.421Z,100.00
2022-10-22T20:19:25.542Z,100.00
2022-10-22T20:22:14.982Z,100.00
2022-10-22T20:25:05.224Z,100.00
2022-10-22T20:27:51.763Z,100.00
2022-10-22T20:30:45.464Z,100.00
2022-10-22T20:33:33.957Z,100.00
2022-10-22T20:36:23.073Z,100.00
2022-10-22T20:39:13.914Z,100.00
2022-10-22T20:42:00.376Z,100.00
2022-10-22T20:44:47.004Z,100.00
2022-10-22T20:47:44.488Z,100.00
2022-10-22T20:50:37.772Z,100.00
2022-10-22T20:53:24.529Z,100.00
2022-10-22T20:56:13.093Z,100.00
2022-10-22T20:59:07.581Z,100.00
2022-10-22T21:01:54.172Z,100.00
2022-10-22T21:04:44.064Z,100.00
2022-10-22T21:07:34.180Z,100.00
2022-10-22T21:10:20.538Z,100.00
2022-10-22T21:13:07.522Z,100.00
2022-10-22T21:15:54.337Z,100.00
2022-10-22T21:18:40.737Z,100.00
2022-10-22T21:21:27.286Z,100.00
2022-10-22T21:24:13.745Z,100.00
2022-10-22T21:27:03.424Z,100.00
2022-10-22T21:29:49.631Z,100.00
2022-10-22T21:32:36.086Z,100.00
2022-10-22T21:35:24.100Z,100.00
2022-10-22T21:38:10.256Z,100.00
2022-10-22T21:40:56.848Z,100.00
2022-10-22T21:43:45.100Z,100.00
2022-10-22T21:46:31.940Z,100.00
2022-10-22T21:49:18.463Z,100.00
2022-10-22T21:52:06.490Z,100.00
2022-10-22T21:54:53.438Z,100.00
2022-10-22T21:57:40.269Z,100.00
2022-10-22T22:00:26.609Z,100.00
2022-10-22T22:03:13.021Z,100.00
2022-10-22T22:06:06.262Z,100.00
2022-10-22T22:08:53.913Z,100.00
2022-10-22T22:11:40.520Z,100.00
2022-10-22T22:14:26.718Z,100.00
2022-10-22T22:17:17.983Z,100.00
2022-10-22T22:20:05.540Z,100.00
2022-10-22T22:22:52.728Z,100.00
2022-10-22T22:25:39.156Z,100.00
2022-10-22T22:28:26.323Z,100.00
2022-10-22T22:31:17.553Z,100.00
2022-10-22T22:34:12.222Z,100.00
2022-10-22T22:36:58.580Z,100.00
2022-10-22T22:39:44.855Z,100.00
2022-10-22T22:42:31.267Z,100.00
2022-10-22T22:45:17.748Z,100.00
2022-10-22T22:48:04.147Z,100.00
2022-10-22T22:50:50.633Z,100.00
2022-10-22T22:53:36.580Z,100.00
2022-10-22T22:56:27.117Z,100.00
2022-10-22T22:59:13.757Z,100.00
2022-10-22T23:02:00.371Z,100.00
2022-10-22T23:04:47.011Z,100.00
2022-10-22T23:07:33.454Z,100.00
2022-10-22T23:10:22.161Z,100.00
2022-10-22T23:13:08.472Z,100.00
2022-10-22T23:15:55.051Z,100.00
2022-10-22T23:18:42.592Z,100.00
2022-10-22T23:21:34.837Z,100.00
2022-10-22T23:24:26.749Z,100.00
2022-10-22T23:27:13.112Z,100.00
2022-10-22T23:29:59.691Z,100.00
2022-10-22T23:32:46.215Z,100.00
2022-10-22T23:35:32.613Z,100.00
2022-10-22T23:38:19.000Z,100.00
2022-10-22T23:41:06.475Z,100.00
2022-10-22T23:43:52.416Z,100.00
2022-10-22T23:46:39.229Z,100.00
2022-10-22T23:49:25.326Z,100.00
2022-10-22T23:52:11.903Z,100.00
2022-10-22T23:54:58.611Z,100.00
2022-10-22T23:57:45.359Z,100.00
